Time;durP1;ratioP1;P1;durP2;ratioP2;P2;SDS_P1;SDS_P2;PMS_P1;PMS_P2;Temp;Humidity;BMP_temperature;BMP_pressure;BME280_temperature;BME280_humidity;BME280_pressure;Samples;Min_cycle;Max_cycle;Signal;HPM_P1;HPM_P2
2023/07/14 00:00:28;;;;;;;6.28;1.67;;;19.50;1.00;;;;;;5071675;28;20866;-67
2023/07/14 00:02:55;;;;;;;6.75;1.80;;;19.60;1.00;;;;;;5070493;28;20410;-67
2023/07/14 00:05:28;;;;;;;6.65;1.50;;;19.50;1.00;;;;;;5074000;28;20774;-66
2023/07/14 00:08:01;;;;;;;7.80;1.70;;;19.40;1.00;;;;;;5091479;28;20464;-66
2023/07/14 00:10:34;;;;;;;6.72;1.80;;;19.50;1.00;;;;;;5092480;28;20389;-66
2023/07/14 00:13:05;;;;;;;6.25;1.80;;;19.50;1.00;;;;;;5075227;28;21181;-68
2023/07/14 00:15:33;;;;;;;6.85;1.92;;;19.40;1.00;;;;;;5071696;28;20384;-67
2023/07/14 00:18:18;;;;;;;6.30;1.70;;;19.30;1.00;;;;;;5070414;28;20507;-68
2023/07/14 00:20:44;;;;;;;6.63;1.80;;;19.30;1.00;;;;;;5071033;28;20986;-68
2023/07/14 00:23:11;;;;;;;8.70;1.67;;;19.20;1.00;;;;;;5070502;28;20474;-68
2023/07/14 00:25:38;;;;;;;9.90;2.10;;;19.20;1.00;;;;;;5070652;28;20438;-66
2023/07/14 00:28:13;;;;;;;9.10;1.80;;;19.20;1.00;;;;;;5070548;28;20387;-67
2023/07/14 00:30:39;;;;;;;7.10;1.77;;;19.10;1.00;;;;;;5049831;28;20479;-68
2023/07/14 00:33:11;;;;;;;7.90;1.70;;;19.10;1.00;;;;;;5049529;28;20451;-67
2023/07/14 00:35:36;;;;;;;8.00;1.90;;;19.00;1.00;;;;;;5049410;28;20983;-67
2023/07/14 00:38:02;;;;;;;6.30;1.70;;;19.00;84.90;;;;;;5049991;28;20456;-67
2023/07/14 00:40:41;;;;;;;8.40;1.90;;;18.90;99.90;;;;;;5049673;28;20459;-67
2023/07/14 00:43:17;;;;;;;6.53;1.73;;;18.90;23.40;;;;;;5050716;28;20390;-67
2023/07/14 00:45:45;;;;;;;6.60;1.90;;;18.80;80.70;;;;;;5070005;28;20445;-67
2023/07/14 00:48:15;;;;;;;8.00;2.10;;;18.70;99.90;;;;;;5069542;28;20372;-68
2023/07/14 00:50:41;;;;;;;8.85;2.15;;;18.60;99.90;;;;;;5069666;28;20484;-67
2023/07/14 00:53:17;;;;;;;7.10;2.20;;;18.60;99.90;;;;;;5070173;28;20756;-67
2023/07/14 00:55:45;;;;;;;6.80;1.70;;;18.50;99.90;;;;;;5070241;28;20934;-67
2023/07/14 00:58:16;;;;;;;6.38;2.22;;;18.50;1.00;;;;;;5069238;28;20407;-67
2023/07/14 01:01:04;;;;;;;6.60;1.90;;;18.50;1.00;;;;;;5069998;28;20790;-67
2023/07/14 01:03:30;;;;;;;6.13;1.90;;;18.30;99.90;;;;;;5068870;28;20376;-68
2023/07/14 01:05:58;;;;;;;6.40;1.83;;;18.20;1.00;;;;;;5069718;28;20412;-67
2023/07/14 01:08:24;;;;;;;7.55;2.45;;;18.10;1.00;;;;;;5069745;28;20725;-67
2023/07/14 01:10:50;;;;;;;6.45;2.10;;;17.90;24.10;;;;;;5069264;28;20765;-67
2023/07/14 01:13:17;;;;;;;5.83;1.80;;;17.90;99.90;;;;;;5069540;28;20388;-67
2023/07/14 01:15:42;;;;;;;7.40;2.08;;;17.80;99.90;;;;;;5070262;28;20807;-67
2023/07/14 01:18:10;;;;;;;8.95;2.35;;;17.80;1.00;;;;;;5068840;28;20459;-67
2023/07/14 01:20:38;;;;;;;8.57;1.98;;;17.80;1.00;;;;;;5068908;28;20392;-67
2023/07/14 01:23:21;;;;;;;6.70;2.10;;;17.90;99.90;;;;;;5069652;28;20388;-67
2023/07/14 01:26:17;;;;;;;9.02;2.65;;;17.90;99.90;;;;;;5068590;28;20399;-67
2023/07/14 01:28:43;;;;;;;6.60;2.00;;;17.80;99.90;;;;;;5055680;28;20438;-67
2023/07/14 01:31:11;;;;;;;6.27;2.30;;;17.60;99.90;;;;;;5069070;28;20420;-67
2023/07/14 01:33:37;;;;;;;7.03;2.08;;;17.50;1.00;;;;;;5068489;28;20477;-67
2023/07/14 01:36:03;;;;;;;6.83;2.17;;;17.30;84.80;;;;;;5068446;28;20422;-67
2023/07/14 01:38:30;;;;;;;10.00;2.20;;;17.20;99.90;;;;;;5068585;28;20527;-67
2023/07/14 01:40:56;;;;;;;7.65;2.30;;;17.10;1.00;;;;;;5068478;28;20391;-67
2023/07/14 01:43:22;;;;;;;6.60;2.30;;;17.20;1.00;;;;;;5068892;28;20416;-65
2023/07/14 01:45:58;;;;;;;9.55;2.20;;;17.30;99.90;;;;;;5068086;28;20761;-67
2023/07/14 01:48:48;;;;;;;6.40;2.10;;;17.40;1.00;;;;;;5068439;28;20915;-67
2023/07/14 01:51:15;;;;;;;8.00;2.70;;;17.40;1.00;;;;;;5069290;28;20909;-67
2023/07/14 01:53:45;;;;;;;8.10;2.10;;;17.40;1.00;;;;;;5068126;28;20392;-67
2023/07/14 01:56:14;;;;;;;7.10;2.10;;;17.40;84.10;;;;;;5068411;28;20380;-66
2023/07/14 01:58:57;;;;;;;7.72;2.58;;;17.40;99.90;;;;;;5068628;28;20420;-67
2023/07/14 02:01:24;;;;;;;7.05;2.13;;;17.20;1.00;;;;;;5068680;28;20399;-67
2023/07/14 02:03:53;;;;;;;7.82;2.30;;;17.10;1.00;;;;;;5068596;28;20458;-67
2023/07/14 02:06:18;;;;;;;7.43;2.38;;;17.00;99.90;;;;;;5068442;28;20387;-67
2023/07/14 02:08:44;;;;;;;6.30;2.20;;;17.00;99.90;;;;;;5069441;28;20403;-67
2023/07/14 02:11:23;;;;;;;6.30;1.85;;;17.00;1.00;;;;;;5068406;28;20396;-67
2023/07/14 02:13:51;;;;;;;6.30;2.00;;;17.10;1.00;;;;;;5069145;28;20422;-66
2023/07/14 02:16:17;;;;;;;7.20;1.85;;;17.20;1.00;;;;;;5070626;28;20380;-66
2023/07/14 02:18:44;;;;;;;5.80;2.00;;;17.30;1.00;;;;;;5068837;28;20416;-67
2023/07/14 02:21:12;;;;;;;6.82;2.10;;;17.20;99.90;;;;;;5068764;28;20384;-67
2023/07/14 02:23:40;;;;;;;8.17;2.00;;;17.20;1.00;;;;;;5068964;28;20403;-67
2023/07/14 02:26:21;;;;;;;7.68;2.40;;;17.20;99.90;;;;;;5068665;28;20783;-67
2023/07/14 02:28:47;;;;;;;7.72;2.22;;;17.20;99.90;;;;;;5068773;28;20415;-67
2023/07/14 02:31:23;;;;;;;6.60;2.50;;;17.10;99.90;;;;;;5068092;28;20384;-67
2023/07/14 02:33:50;;;;;;;6.97;2.13;;;17.10;1.00;;;;;;5067018;28;20419;-67
2023/07/14 02:36:24;;;;;;;8.90;2.00;;;17.20;1.00;;;;;;5067874;28;20755;-67
2023/07/14 02:38:50;;;;;;;8.10;2.63;;;17.10;99.90;;;;;;5067943;28;20415;-67
2023/07/14 02:41:25;;;;;;;7.13;2.22;;;17.10;1.00;;;;;;5068049;28;20395;-67
2023/07/14 02:43:58;;;;;;;8.98;2.30;;;17.00;99.90;;;;;;5068554;28;20472;-67
2023/07/14 02:46:28;;;;;;;6.60;2.20;;;16.90;99.90;;;;;;5068013;28;20399;-66
2023/07/14 02:48:53;;;;;;;7.20;2.35;;;16.80;1.00;;;;;;5068653;28;20380;-67
2023/07/14 02:51:19;;;;;;;9.00;2.50;;;16.70;1.00;;;;;;5067732;28;20384;-67
2023/07/14 02:53:45;;;;;;;6.28;2.00;;;16.60;99.90;;;;;;5067329;28;20875;-66
2023/07/14 02:56:11;;;;;;;7.13;2.47;;;16.50;41.10;;;;;;5067244;28;20398;-66
2023/07/14 02:58:36;;;;;;;7.40;2.20;;;16.40;99.90;;;;;;5066585;28;20427;-66
2023/07/14 03:01:04;;;;;;;7.30;2.38;;;16.40;99.90;;;;;;5066886;28;20514;-66
2023/07/14 03:03:31;;;;;;;7.93;2.25;;;16.50;1.00;;;;;;5066772;28;20392;-66
2023/07/14 03:05:57;;;;;;;6.60;2.40;;;16.40;1.00;;;;;;5067424;28;20533;-66
2023/07/14 03:08:22;;;;;;;6.30;1.90;;;16.50;1.00;;;;;;5066922;28;20510;-66
2023/07/14 03:10:56;;;;;;;6.73;2.20;;;16.50;99.90;;;;;;5066956;28;20388;-66
2023/07/14 03:13:22;;;;;;;7.30;2.13;;;16.50;1.00;;;;;;5066749;28;20479;-66
2023/07/14 03:15:48;;;;;;;7.70;2.30;;;16.30;99.90;;;;;;5066632;28;20403;-66
2023/07/14 03:18:14;;;;;;;7.88;2.60;;;16.30;1.00;;;;;;5067228;28;20416;-66
2023/07/14 03:20:40;;;;;;;5.70;1.95;;;16.30;1.00;;;;;;5066765;28;20497;-66
2023/07/14 03:23:06;;;;;;;7.50;2.30;;;16.20;99.90;;;;;;5066555;28;20868;-66
2023/07/14 03:25:33;;;;;;;9.47;2.47;;;16.20;99.90;;;;;;5066760;28;20391;-66
2023/07/14 03:28:00;;;;;;;8.07;2.40;;;16.20;99.90;;;;;;5066889;28;20384;-66
2023/07/14 03:30:26;;;;;;;6.85;2.42;;;16.10;99.90;;;;;;5066850;28;20411;-66
2023/07/14 03:32:51;;;;;;;6.07;2.27;;;16.10;1.00;;;;;;5066844;28;20464;-66
2023/07/14 03:35:19;;;;;;;11.25;2.85;;;16.10;1.00;;;;;;5066229;28;20391;-66
2023/07/14 03:37:45;;;;;;;6.57;2.45;;;16.10;1.00;;;;;;5066997;28;20427;-67
2023/07/14 03:40:11;;;;;;;6.10;2.30;;;16.10;1.00;;;;;;5066392;28;20391;-66
2023/07/14 03:42:38;;;;;;;7.50;2.47;;;16.10;1.00;;;;;;5066081;28;20407;-66
2023/07/14 03:45:05;;;;;;;9.60;2.25;;;16.10;1.00;;;;;;5066594;28;20387;-66
2023/07/14 03:47:31;;;;;;;7.40;2.50;;;16.10;51.50;;;;;;5067012;28;20471;-66
2023/07/14 03:49:57;;;;;;;6.40;2.60;;;16.00;99.90;;;;;;5066398;28;20506;-66
2023/07/14 03:52:22;;;;;;;5.83;2.10;;;16.00;97.90;;;;;;5059970;28;20416;-67
2023/07/14 03:54:48;;;;;;;6.65;2.63;;;16.00;58.90;;;;;;5063663;28;20777;-67
2023/07/14 03:57:14;;;;;;;5.93;2.10;;;16.00;42.80;;;;;;5066962;28;20457;-66
2023/07/14 03:59:39;;;;;;;8.10;2.40;;;16.00;55.90;;;;;;5066704;28;20407;-66
2023/07/14 04:02:05;;;;;;;8.53;2.30;;;16.10;99.90;;;;;;5066441;28;20409;-66
2023/07/14 04:04:31;;;;;;;8.57;2.40;;;16.10;99.90;;;;;;5067067;28;20384;-66
2023/07/14 04:13:11;;;;;;;7.43;2.47;;;16.50;1.00;;;;;;4945111;28;20412;-67
2023/07/14 04:15:36;;;;;;;6.93;2.30;;;16.60;1.00;;;;;;5044701;28;20906;-67
2023/07/14 04:18:02;;;;;;;8.07;2.20;;;16.70;1.00;;;;;;5048233;28;20484;-66
2023/07/14 04:20:28;;;;;;;7.80;2.80;;;17.00;1.00;;;;;;5031818;28;20403;-66
2023/07/14 04:22:53;;;;;;;7.47;2.60;;;17.10;99.90;;;;;;5037036;28;20492;-67
2023/07/14 04:25:19;;;;;;;7.17;2.30;;;17.20;99.90;;;;;;5031988;28;20422;-66
2023/07/14 04:27:45;;;;;;;15.05;3.70;;;17.20;10.00;;;;;;5045250;28;20413;-66
2023/07/14 04:30:11;;;;;;;10.90;2.92;;;17.30;99.90;;;;;;5047112;28;20390;-66
2023/07/14 04:32:36;;;;;;;7.15;2.72;;;17.40;1.00;;;;;;5046060;28;20829;-66
2023/07/14 04:35:04;;;;;;;12.55;4.20;;;17.50;99.90;;;;;;5031215;28;20480;-66
2023/07/14 04:37:29;;;;;;;8.32;3.35;;;17.50;1.00;;;;;;5039342;28;20517;-65
2023/07/14 04:39:55;;;;;;;10.10;3.58;;;17.60;1.00;;;;;;5033599;28;20510;-66
2023/07/14 04:42:20;;;;;;;12.82;3.60;;;17.90;99.90;;;;;;5032734;28;20485;-65
2023/07/14 04:44:46;;;;;;;8.05;3.13;;;18.00;1.00;;;;;;5039056;28;20496;-66
2023/07/14 04:47:11;;;;;;;10.17;3.50;;;18.20;19.20;;;;;;5030045;28;20407;-66
2023/07/14 04:49:37;;;;;;;10.47;3.40;;;18.20;71.10;;;;;;5037786;28;20399;-66
2023/07/14 04:52:03;;;;;;;8.67;3.30;;;18.20;99.90;;;;;;5034705;28;20421;-66
2023/07/14 04:54:28;;;;;;;9.90;3.20;;;18.40;1.00;;;;;;5034042;28;20453;-66
2023/07/14 04:56:54;;;;;;;8.45;3.10;;;18.60;99.90;;;;;;5037599;28;20753;-66
2023/07/14 04:59:19;;;;;;;8.18;3.58;;;18.60;99.90;;;;;;5030483;28;20427;-67
2023/07/14 05:01:45;;;;;;;9.38;3.03;;;18.80;1.00;;;;;;5044603;28;20413;-67
2023/07/14 05:04:11;;;;;;;9.48;3.17;;;19.10;99.90;;;;;;5049436;28;20515;-67
2023/07/14 05:06:36;;;;;;;8.70;3.00;;;19.20;1.00;;;;;;5049826;28;20879;-67
2023/07/14 05:09:02;;;;;;;9.53;3.17;;;19.30;1.00;;;;;;5056937;28;20470;-75
2023/07/14 05:11:28;;;;;;;8.98;3.10;;;19.40;1.00;;;;;;5057625;28;20915;-76
2023/07/14 05:13:55;;;;;;;9.15;3.22;;;19.30;46.20;;;;;;5071374;28;20387;-77
2023/07/14 05:16:21;;;;;;;9.48;3.10;;;19.30;99.90;;;;;;5073357;28;20415;-73
2023/07/14 05:18:47;;;;;;;7.60;3.10;;;19.60;99.90;;;;;;5054462;28;20771;-73
2023/07/14 05:21:13;;;;;;;7.97;3.17;;;19.70;1.00;;;;;;5049046;28;20543;-66
2023/07/14 05:23:39;;;;;;;8.60;3.20;;;19.90;73.30;;;;;;5051137;28;20404;-66
2023/07/14 05:26:04;;;;;;;8.35;3.05;;;20.20;1.00;;;;;;5049353;28;20397;-66
2023/07/14 05:28:30;;;;;;;8.73;3.10;;;20.50;99.90;;;;;;5049337;28;21085;-67
2023/07/14 05:30:57;;;;;;;7.85;3.20;;;20.40;99.90;;;;;;5050430;28;20424;-67
2023/07/14 05:33:23;;;;;;;8.77;3.03;;;20.50;99.90;;;;;;5049502;28;20463;-67
2023/07/14 05:35:48;;;;;;;9.87;2.60;;;20.60;99.90;;;;;;5053786;28;20411;-66
2023/07/14 05:38:15;;;;;;;11.00;3.77;;;20.80;90.10;;;;;;5069328;28;20882;-66
2023/07/14 05:40:40;;;;;;;8.73;2.90;;;20.80;99.90;;;;;;5070419;28;21020;-66
2023/07/14 05:43:06;;;;;;;9.37;3.03;;;21.00;24.50;;;;;;5070051;28;20390;-66
2023/07/14 05:45:32;;;;;;;7.73;3.20;;;21.10;1.00;;;;;;5069593;28;20815;-66
2023/07/14 05:47:57;;;;;;;8.98;3.15;;;21.00;1.00;;;;;;5069030;28;20742;-66
2023/07/14 05:50:23;;;;;;;7.37;2.90;;;20.90;1.00;;;;;;5069346;28;20404;-66
2023/07/14 05:52:48;;;;;;;9.85;3.35;;;21.00;1.00;;;;;;5054159;28;20399;-66
2023/07/14 05:55:14;;;;;;;12.60;3.63;;;21.50;1.00;;;;;;5049443;28;20446;-66
2023/07/14 05:57:40;;;;;;;10.80;3.50;;;22.00;1.00;;;;;;5049826;28;20381;-66
2023/07/14 06:00:16;;;;;;;9.20;3.60;;;22.20;1.00;;;;;;5050303;28;20439;-66
2023/07/14 06:02:43;;;;;;;10.98;3.20;;;21.90;1.00;;;;;;5049605;28;20393;-66
2023/07/14 06:05:09;;;;;;;9.13;3.20;;;22.00;1.00;;;;;;5030661;28;20452;-66
2023/07/14 06:07:41;;;;;;;7.88;2.97;;;22.10;1.00;;;;;;5059766;28;20386;-66
2023/07/14 06:10:08;;;;;;;9.77;3.03;;;22.00;99.90;;;;;;5062846;28;20471;-66
2023/07/14 06:12:34;;;;;;;7.03;2.90;;;22.00;99.90;;;;;;5070399;28;20519;-67
2023/07/14 06:14:59;;;;;;;10.60;3.30;;;21.70;99.90;;;;;;5053273;28;20472;-67
2023/07/14 06:17:25;;;;;;;9.73;3.25;;;21.30;1.00;;;;;;5049444;28;20394;-67
2023/07/14 06:19:51;;;;;;;7.68;3.10;;;21.20;1.00;;;;;;5049095;28;20466;-67
2023/07/14 06:22:16;;;;;;;10.48;3.20;;;21.50;1.00;;;;;;5054998;28;20475;-67
2023/07/14 06:24:42;;;;;;;7.80;2.70;;;22.10;99.90;;;;;;5068636;28;20387;-67
2023/07/14 06:27:08;;;;;;;8.10;2.70;;;23.00;99.90;;;;;;5050386;28;20720;-67
2023/07/14 06:29:34;;;;;;;8.57;2.90;;;24.40;99.90;;;;;;5049100;28;20421;-67
2023/07/14 06:32:01;;;;;;;6.68;2.60;;;25.30;99.90;;;;;;5049010;28;20424;-67
2023/07/14 06:34:26;;;;;;;7.18;2.60;;;26.10;99.90;;;;;;5049064;28;21009;-67
2023/07/14 06:36:52;;;;;;;11.50;2.90;;;26.60;99.90;;;;;;5049095;28;20460;-68
2023/07/14 06:39:19;;;;;;;8.25;2.83;;;26.70;99.90;;;;;;5061710;28;21118;-67
2023/07/14 06:41:44;;;;;;;7.63;2.70;;;26.80;99.90;;;;;;5053190;28;20405;-67
2023/07/14 06:44:10;;;;;;;8.50;2.90;;;27.30;99.90;;;;;;5048283;28;20402;-66
2023/07/14 06:46:35;;;;;;;9.05;2.88;;;27.80;99.90;;;;;;5055591;28;20415;-68
2023/07/14 06:49:03;;;;;;;9.40;2.80;;;28.50;99.90;;;;;;5049376;28;20393;-68
2023/07/14 06:51:28;;;;;;;8.70;2.63;;;29.20;99.90;;;;;;5048851;28;20524;-68
2023/07/14 06:53:54;;;;;;;9.80;2.20;;;30.20;99.90;;;;;;5049361;28;20837;-67
2023/07/14 06:56:20;;;;;;;6.25;2.50;;;30.70;99.90;;;;;;5039768;28;20431;-67
2023/07/14 06:58:45;;;;;;;6.80;2.03;;;30.40;99.90;;;;;;5039040;28;20418;-67
2023/07/14 07:01:11;;;;;;;6.47;2.20;;;30.70;99.90;;;;;;5048541;28;20412;-67
2023/07/14 07:03:37;;;;;;;6.13;2.28;;;31.30;99.90;;;;;;5061979;28;21223;-68
2023/07/14 07:06:03;;;;;;;8.13;2.33;;;31.50;99.90;;;;;;5068547;28;20455;-67
2023/07/14 07:08:29;;;;;;;6.93;2.20;;;31.00;99.90;;;;;;5067112;28;20410;-67
2023/07/14 07:10:55;;;;;;;6.90;2.33;;;31.30;99.90;;;;;;5068638;28;20399;-67
2023/07/14 07:13:20;;;;;;;7.55;2.08;;;31.70;99.90;;;;;;5062090;28;21169;-67
2023/07/14 07:15:46;;;;;;;6.68;2.53;;;32.50;99.90;;;;;;5047891;28;20499;-68
2023/07/14 07:18:11;;;;;;;7.47;2.30;;;32.90;99.90;;;;;;5048080;28;20417;-68
2023/07/14 07:20:42;;;;;;;7.03;2.50;;;32.30;99.90;;;;;;5051309;28;20491;-68
2023/07/14 07:23:09;;;;;;;6.90;2.80;;;32.10;99.90;;;;;;5068181;28;20920;-68
2023/07/14 07:25:35;;;;;;;6.80;1.80;;;32.60;99.90;;;;;;5051281;28;20441;-67
2023/07/14 07:28:02;;;;;;;6.60;2.53;;;33.10;99.90;;;;;;5057998;28;20464;-67
2023/07/14 07:30:27;;;;;;;7.55;2.13;;;33.60;99.90;;;;;;5049364;28;20794;-67
2023/07/14 07:32:53;;;;;;;8.13;2.47;;;33.90;99.90;;;;;;5029471;28;20410;-67
2023/07/14 07:35:18;;;;;;;6.70;2.10;;;33.90;99.90;;;;;;5047659;28;20883;-67
2023/07/14 07:37:44;;;;;;;6.30;1.90;;;33.70;99.90;;;;;;5047543;28;20733;-68
2023/07/14 07:40:11;;;;;;;6.78;2.40;;;33.40;99.90;;;;;;5048266;28;20385;-68
2023/07/14 07:42:38;;;;;;;7.50;2.10;;;32.90;99.90;;;;;;5049613;28;20413;-68
2023/07/14 07:45:04;;;;;;;6.45;2.08;;;32.90;99.90;;;;;;5031963;28;20778;-68
2023/07/14 07:47:29;;;;;;;6.85;2.10;;;33.00;99.90;;;;;;5045731;28;20393;-67
2023/07/14 07:49:55;;;;;;;7.40;2.22;;;33.30;99.90;;;;;;5052985;28;20483;-68
2023/07/14 07:52:20;;;;;;;7.37;2.20;;;33.60;99.90;;;;;;5051467;28;20700;-68
2023/07/14 07:54:46;;;;;;;5.90;1.70;;;34.10;99.90;;;;;;5051900;28;20405;-68
2023/07/14 07:57:11;;;;;;;6.70;1.50;;;34.30;99.90;;;;;;5051973;28;20393;-69
2023/07/14 07:59:38;;;;;;;7.10;2.40;;;34.90;99.90;;;;;;5051605;28;20420;-68
2023/07/14 08:02:06;;;;;;;5.70;1.40;;;35.70;99.90;;;;;;5051957;28;20398;-68
2023/07/14 08:04:32;;;;;;;8.10;1.70;;;35.90;99.90;;;;;;5051717;28;20401;-68
2023/07/14 08:06:57;;;;;;;8.07;1.92;;;35.20;99.90;;;;;;5051823;28;20750;-68
2023/07/14 08:09:23;;;;;;;8.40;1.90;;;34.50;99.90;;;;;;5051461;28;20886;-69
2023/07/14 08:11:53;;;;;;;7.40;2.10;;;34.20;99.90;;;;;;5051371;28;20939;-68
2023/07/14 08:14:19;;;;;;;7.03;1.90;;;33.90;99.90;;;;;;5064064;28;20483;-68
2023/07/14 08:16:45;;;;;;;6.50;1.73;;;33.70;99.90;;;;;;5071621;28;20478;-68
2023/07/14 08:19:13;;;;;;;6.13;1.40;;;33.40;99.90;;;;;;5071515;28;20471;-68
2023/07/14 08:21:39;;;;;;;6.22;1.90;;;33.00;99.90;;;;;;5071146;28;20384;-68
2023/07/14 08:24:06;;;;;;;7.13;2.00;;;34.00;99.90;;;;;;5070275;28;20456;-68
2023/07/14 08:26:33;;;;;;;9.35;1.90;;;34.70;99.90;;;;;;5051095;28;20944;-68
2023/07/14 08:28:59;;;;;;;6.57;1.95;;;35.20;99.90;;;;;;5051637;28;20378;-69
2023/07/14 08:31:24;;;;;;;6.30;2.10;;;35.30;99.90;;;;;;5051826;28;20506;-68
2023/07/14 08:33:51;;;;;;;6.77;2.03;;;35.50;99.90;;;;;;5051378;28;20832;-68
2023/07/14 08:36:17;;;;;;;7.45;1.70;;;35.70;99.90;;;;;;5059309;28;20383;-68
2023/07/14 08:38:42;;;;;;;6.30;1.63;;;36.00;99.90;;;;;;5071037;28;20415;-68
2023/07/14 08:41:33;;;;;;;5.80;1.70;;;36.00;99.90;;;;;;5069666;28;20455;-68
2023/07/14 08:44:17;;;;;;;6.90;1.90;;;35.70;99.90;;;;;;5051330;28;20397;-68
2023/07/14 08:47:03;;;;;;;6.60;1.92;;;35.70;99.90;;;;;;5050833;28;20393;-68
2023/07/14 08:49:44;;;;;;;5.70;1.90;;;34.50;99.90;;;;;;5050739;28;20770;-68
2023/07/14 08:52:19;;;;;;;8.85;1.80;;;33.10;99.90;;;;;;5050993;28;20432;-68
2023/07/14 08:54:49;;;;;;;7.25;1.80;;;32.40;99.90;;;;;;5050857;28;20385;-68
2023/07/14 08:57:19;;;;;;;6.82;2.05;;;32.00;99.90;;;;;;5063978;28;20407;-68
2023/07/14 08:59:45;;;;;;;7.20;1.48;;;31.50;99.90;;;;;;5061058;28;20952;-68
2023/07/14 09:02:46;;;;;;;8.73;2.08;;;31.20;99.90;;;;;;5056870;28;20921;-68
2023/07/14 09:05:19;;;;;;;6.00;1.50;;;31.70;99.90;;;;;;5067458;28;21055;-68
2023/07/14 09:07:45;;;;;;;6.10;1.40;;;32.00;99.90;;;;;;5049628;28;20907;-68
2023/07/14 09:10:12;;;;;;;9.10;1.70;;;32.60;99.90;;;;;;5050451;28;20401;-68
2023/07/14 09:12:53;;;;;;;6.40;1.70;;;32.80;99.90;;;;;;5050273;28;20500;-68
2023/07/14 09:15:23;;;;;;;6.80;1.85;;;31.70;99.90;;;;;;5033068;28;20394;-67
2023/07/14 09:18:07;;;;;;;5.40;1.40;;;31.30;99.90;;;;;;5050018;28;20395;-67
2023/07/14 09:20:50;;;;;;;5.90;1.80;;;30.70;99.90;;;;;;5050023;28;20382;-67
2023/07/14 09:23:35;;;;;;;5.45;1.33;;;30.40;99.90;;;;;;5049993;28;20382;-67
2023/07/14 09:26:01;;;;;;;6.20;1.92;;;30.00;99.90;;;;;;5069055;28;20391;-67
2023/07/14 09:28:35;;;;;;;8.02;1.73;;;30.10;99.90;;;;;;5070621;28;20423;-67
2023/07/14 09:31:06;;;;;;;5.50;1.77;;;30.50;99.90;;;;;;5069979;28;20474;-67
2023/07/14 09:33:47;;;;;;;7.70;1.60;;;30.80;99.90;;;;;;5058158;28;20420;-66
2023/07/14 09:36:12;;;;;;;6.20;1.40;;;30.50;99.90;;;;;;5050078;28;20427;-67
2023/07/14 09:38:54;;;;;;;5.93;1.43;;;30.70;99.90;;;;;;5049749;28;20508;-67
2023/07/14 09:41:24;;;;;;;6.65;1.70;;;30.60;99.90;;;;;;5049881;28;20393;-67
2023/07/14 09:43:49;;;;;;;6.15;1.58;;;30.70;99.90;;;;;;5032278;28;20754;-68
2023/07/14 09:46:18;;;;;;;6.60;1.45;;;30.90;99.90;;;;;;5049613;28;20401;-67
2023/07/14 09:49:09;;;;;;;7.05;1.60;;;30.90;99.90;;;;;;5049666;28;20384;-67
2023/07/14 09:51:36;;;;;;;6.45;1.85;;;31.30;99.90;;;;;;5049581;28;20555;-67
2023/07/14 09:54:07;;;;;;;6.07;1.60;;;31.30;99.90;;;;;;5049283;28;20404;-67
2023/07/14 09:56:37;;;;;;;5.60;1.52;;;31.50;99.90;;;;;;5049516;28;20480;-67
2023/07/14 09:59:05;;;;;;;7.10;1.80;;;31.30;99.90;;;;;;5031319;28;20445;-67
2023/07/14 10:01:32;;;;;;;5.50;1.30;;;30.90;99.90;;;;;;5049347;28;20398;-67
2023/07/14 10:04:12;;;;;;;7.30;1.60;;;30.40;99.90;;;;;;5049385;28;20444;-67
2023/07/14 10:06:38;;;;;;;6.63;1.58;;;30.30;99.90;;;;;;5048192;28;20710;-67
2023/07/14 10:09:11;;;;;;;5.50;1.70;;;30.00;99.90;;;;;;5048989;28;20455;-67
2023/07/14 10:11:45;;;;;;;6.75;2.10;;;29.80;99.90;;;;;;5057894;28;20580;-67
2023/07/14 10:14:35;;;;;;;6.07;1.65;;;29.60;99.90;;;;;;5057507;28;20389;-67
2023/07/14 10:17:01;;;;;;;5.85;1.80;;;29.60;99.90;;;;;;5049224;28;20864;-67
2023/07/14 10:19:36;;;;;;;6.38;1.85;;;29.80;99.90;;;;;;5031924;28;20919;-67
2023/07/14 10:22:11;;;;;;;6.53;1.95;;;29.60;99.90;;;;;;5049292;28;20410;-67
2023/07/14 10:24:37;;;;;;;5.80;1.80;;;29.40;99.90;;;;;;5049229;28;20439;-67
2023/07/14 10:27:29;;;;;;;8.73;1.30;;;29.60;99.90;;;;;;5049173;28;20393;-67
2023/07/14 10:29:57;;;;;;;8.88;1.98;;;29.40;99.90;;;;;;5049333;28;20868;-67
2023/07/14 10:32:32;;;;;;;6.20;1.90;;;29.20;99.90;;;;;;5048446;28;20617;-67
2023/07/14 10:35:17;;;;;;;5.97;1.90;;;29.00;99.90;;;;;;5061439;28;20482;-67
2023/07/14 10:37:51;;;;;;;5.95;2.08;;;29.10;99.90;;;;;;5048857;28;20393;-67
2023/07/14 10:40:20;;;;;;;6.78;1.80;;;29.40;99.90;;;;;;5048950;28;20393;-67
2023/07/14 10:43:15;;;;;;;5.95;2.05;;;29.60;99.90;;;;;;5048771;28;20381;-67
2023/07/14 10:45:47;;;;;;;6.90;1.80;;;29.50;99.90;;;;;;5019502;28;20726;-67
2023/07/14 10:48:21;;;;;;;5.70;1.73;;;29.50;99.90;;;;;;5029402;28;20399;-67
2023/07/14 10:51:10;;;;;;;5.93;1.80;;;29.30;99.90;;;;;;5039515;28;20733;-67
2023/07/14 10:53:42;;;;;;;5.83;1.90;;;29.70;99.90;;;;;;5048640;28;20389;-67
2023/07/14 10:56:22;;;;;;;6.00;1.50;;;29.90;99.90;;;;;;5048351;28;20393;-68
2023/07/14 10:59:01;;;;;;;6.30;1.65;;;30.10;99.90;;;;;;5061215;28;20828;-67
2023/07/14 11:01:39;;;;;;;8.07;1.90;;;30.10;99.90;;;;;;5068887;28;20434;-68
2023/07/14 11:04:25;;;;;;;6.50;1.80;;;30.00;99.90;;;;;;5068555;28;20722;-68
2023/07/14 11:06:54;;;;;;;7.50;1.67;;;29.90;99.90;;;;;;5068897;28;20387;-68
2023/07/14 11:09:19;;;;;;;6.47;1.90;;;29.90;99.90;;;;;;5050160;28;20904;-68
2023/07/14 11:11:59;;;;;;;5.60;1.67;;;30.40;99.90;;;;;;5048273;28;20428;-68
2023/07/14 11:14:45;;;;;;;5.38;1.40;;;30.60;99.90;;;;;;5058175;28;20415;-66
2023/07/14 11:17:41;;;;;;;7.13;1.45;;;30.50;99.90;;;;;;5069768;28;20418;-68
2023/07/14 11:20:33;;;;;;;5.93;1.60;;;30.60;99.90;;;;;;5070985;28;20449;-68
2023/07/14 11:23:08;;;;;;;6.03;1.58;;;30.80;99.90;;;;;;5051323;28;20409;-67
2023/07/14 11:25:42;;;;;;;7.90;2.05;;;30.30;99.90;;;;;;5051948;28;20459;-67
2023/07/14 11:28:14;;;;;;;6.70;1.70;;;30.10;99.90;;;;;;5054299;28;20494;-67
2023/07/14 11:30:43;;;;;;;6.35;1.83;;;30.30;99.90;;;;;;5051417;28;20405;-67
2023/07/14 11:33:21;;;;;;;5.50;1.60;;;30.50;99.90;;;;;;5051887;28;21064;-67
2023/07/14 11:36:01;;;;;;;5.97;1.60;;;30.80;99.90;;;;;;5052002;28;20842;-67
2023/07/14 11:38:53;;;;;;;6.60;1.60;;;30.90;99.90;;;;;;5052395;28;20414;-67
2023/07/14 11:41:20;;;;;;;6.10;1.70;;;30.90;99.90;;;;;;5051897;28;20425;-67
2023/07/14 11:43:46;;;;;;;5.60;1.75;;;30.80;99.90;;;;;;5051945;28;20432;-68
2023/07/14 11:46:19;;;;;;;5.80;2.10;;;30.90;99.90;;;;;;5051713;28;20388;-67
2023/07/14 11:48:53;;;;;;;6.72;1.90;;;31.00;99.90;;;;;;5038037;28;20484;-67
2023/07/14 11:51:42;;;;;;;6.10;1.70;;;31.00;99.90;;;;;;5033623;28;20404;-67
2023/07/14 11:54:18;;;;;;;6.22;1.90;;;30.90;99.90;;;;;;5051731;28;20391;-67
2023/07/14 11:57:00;;;;;;;5.80;1.55;;;30.90;99.90;;;;;;5051981;28;20428;-67
2023/07/14 11:59:28;;;;;;;7.05;1.65;;;31.10;99.90;;;;;;5052084;28;20413;-67
2023/07/14 12:01:56;;;;;;;6.70;1.90;;;31.10;99.90;;;;;;5052331;28;20385;-67
2023/07/14 12:04:40;;;;;;;6.47;1.90;;;31.00;99.90;;;;;;5059616;28;20419;-67
2023/07/14 12:07:11;;;;;;;7.30;1.60;;;31.00;99.90;;;;;;5048699;28;20440;-67
2023/07/14 12:09:57;;;;;;;5.90;1.90;;;31.10;99.90;;;;;;5051514;28;20472;-67
2023/07/14 12:12:23;;;;;;;5.55;1.65;;;31.20;99.90;;;;;;5051338;28;20467;-67
2023/07/14 12:14:50;;;;;;;6.00;1.60;;;31.40;99.90;;;;;;5067362;28;20507;-67
2023/07/14 12:17:37;;;;;;;6.70;1.90;;;31.80;99.90;;;;;;5071318;28;20399;-67
2023/07/14 12:20:25;;;;;;;5.70;1.33;;;31.90;99.90;;;;;;5071348;28;20449;-67
2023/07/14 12:23:24;;;;;;;6.22;1.90;;;31.90;99.90;;;;;;5062031;28;20411;-68
2023/07/14 12:25:56;;;;;;;7.00;1.80;;;32.10;99.90;;;;;;5042993;28;20403;-68
2023/07/14 12:28:30;;;;;;;5.53;1.67;;;32.40;99.90;;;;;;5044424;28;20854;-67
2023/07/14 12:31:00;;;;;;;6.40;1.80;;;32.20;99.90;;;;;;5052362;28;20415;-68
2023/07/14 12:33:26;;;;;;;6.60;1.80;;;32.30;99.90;;;;;;5045206;28;20400;-68
2023/07/14 12:35:51;;;;;;;6.80;1.90;;;32.30;99.90;;;;;;5045329;28;20766;-67
2023/07/14 12:38:22;;;;;;;7.10;2.17;;;32.30;99.90;;;;;;5053445;28;20463;-67
2023/07/14 12:40:51;;;;;;;5.65;1.70;;;32.10;99.90;;;;;;5051829;28;20486;-67
2023/07/14 12:43:40;;;;;;;5.63;1.90;;;31.80;99.90;;;;;;5051795;28;20409;-66
2023/07/14 12:46:27;;;;;;;6.88;1.67;;;31.90;99.90;;;;;;5051343;28;20444;-67
2023/07/14 12:49:03;;;;;;;7.63;1.73;;;31.80;99.90;;;;;;5058294;28;20407;-66
2023/07/14 12:51:33;;;;;;;5.70;1.67;;;31.60;99.90;;;;;;5060384;28;20422;-67
2023/07/14 12:54:04;;;;;;;5.80;1.58;;;31.50;99.90;;;;;;5059196;28;20380;-67
2023/07/14 12:56:31;;;;;;;5.95;1.90;;;31.60;99.90;;;;;;5055138;28;20384;-67
2023/07/14 12:59:02;;;;;;;8.93;1.63;;;31.20;99.90;;;;;;5057671;28;20421;-67
2023/07/14 13:01:28;;;;;;;6.10;1.70;;;31.10;99.90;;;;;;5057215;28;20891;-67
2023/07/14 13:03:54;;;;;;;6.00;1.88;;;31.00;99.90;;;;;;5054064;28;20407;-67
2023/07/14 13:06:23;;;;;;;5.70;1.75;;;31.00;99.90;;;;;;5045349;28;20415;-66
2023/07/14 13:08:51;;;;;;;7.10;2.00;;;31.00;99.90;;;;;;5050586;28;20535;-67